createdAt,value
2022-11-17T00:00:45.291Z,98.83
2022-11-17T00:03:15.671Z,98.76
2022-11-17T00:05:44.592Z,99.09
2022-11-17T00:08:11.980Z,98.86
2022-11-17T00:10:39.030Z,99.11
2022-11-17T00:13:27.355Z,99.34
2022-11-17T00:15:54.244Z,99.56
2022-11-17T00:18:39.885Z,99.46
2022-11-17T00:21:18.984Z,99.53
2022-11-17T00:23:50.094Z,99.74
2022-11-17T00:26:32.793Z,100.00
2022-11-17T00:29:05.497Z,99.94
2022-11-17T00:31:53.058Z,100.00
2022-11-17T00:34:22.741Z,100.00
2022-11-17T00:36:55.350Z,100.00
2022-11-17T00:39:24.345Z,100.00
2022-11-17T00:41:51.394Z,100.00
2022-11-17T00:44:18.475Z,100.00
2022-11-17T00:46:45.473Z,100.00
2022-11-17T00:49:12.840Z,100.00
2022-11-17T00:51:41.042Z,100.00
2022-11-17T00:54:12.773Z,100.00
2022-11-17T00:56:40.411Z,99.99
2022-11-17T00:59:07.459Z,99.97
2022-11-17T01:01:34.930Z,100.00
2022-11-17T01:04:04.101Z,100.00
2022-11-17T01:06:39.136Z,100.00
2022-11-17T01:09:12.622Z,100.00
2022-11-17T01:11:40.266Z,100.00
2022-11-17T01:14:07.544Z,100.00
2022-11-17T01:16:34.525Z,100.00
2022-11-17T01:19:03.609Z,100.00
2022-11-17T01:21:31.940Z,100.00
2022-11-17T01:24:01.959Z,100.00
2022-11-17T01:26:34.015Z,100.00
2022-11-17T01:29:04.128Z,100.00
2022-11-17T01:31:35.794Z,100.00
2022-11-17T01:34:02.975Z,100.00
2022-11-17T01:36:53.079Z,100.00
2022-11-17T01:39:20.911Z,100.00
2022-11-17T01:41:47.887Z,100.00
2022-11-17T01:44:44.494Z,100.00
2022-11-17T01:47:38.065Z,100.00
2022-11-17T01:50:20.306Z,100.00
2022-11-17T01:52:51.094Z,100.00
2022-11-17T01:55:21.921Z,100.00
2022-11-17T01:58:01.342Z,100.00
2022-11-17T02:00:29.584Z,100.00
2022-11-17T02:02:58.106Z,100.00
2022-11-17T02:05:37.826Z,100.00
2022-11-17T02:08:07.319Z,100.00
2022-11-17T02:10:36.366Z,100.00
2022-11-17T02:13:04.326Z,100.00
2022-11-17T02:15:31.772Z,100.00
2022-11-17T02:18:00.632Z,100.00
2022-11-17T02:21:14.917Z,100.00
2022-11-17T02:24:42.000Z,100.00
2022-11-17T02:27:44.367Z,100.00
2022-11-17T02:30:18.079Z,99.98
2022-11-17T02:33:11.221Z,100.00
2022-11-17T02:36:07.954Z,100.00
2022-11-17T02:38:59.392Z,99.79
2022-11-17T02:41:41.295Z,99.63
2022-11-17T02:44:25.118Z,99.30
2022-11-17T02:47:14.367Z,99.10
2022-11-17T02:49:50.191Z,98.54
2022-11-17T02:52:19.524Z,98.50
2022-11-17T02:54:46.602Z,98.71
2022-11-17T02:57:35.632Z,98.76
2022-11-17T03:00:17.280Z,98.70
2022-11-17T03:03:18.425Z,98.78
2022-11-17T03:06:09.615Z,98.51
2022-11-17T03:09:12.815Z,98.46
2022-11-17T03:12:00.242Z,98.63
2022-11-17T03:14:42.955Z,98.73
2022-11-17T03:17:41.203Z,98.70
2022-11-17T03:20:27.927Z,98.39
2022-11-17T03:23:24.574Z,98.26
2022-11-17T03:25:57.963Z,98.53
2022-11-17T03:28:30.755Z,98.43
2022-11-17T03:31:02.765Z,98.56
2022-11-17T03:33:31.913Z,98.46
2022-11-17T03:36:12.544Z,98.68
2022-11-17T03:38:56.129Z,98.83
2022-11-17T03:41:25.813Z,99.13
2022-11-17T03:43:58.049Z,99.30
2022-11-17T03:46:29.651Z,99.44
2022-11-17T03:49:30.463Z,99.53
2022-11-17T03:51:58.002Z,99.76
2022-11-17T03:54:25.351Z,99.46
2022-11-17T03:57:13.151Z,99.67
2022-11-17T03:59:55.709Z,99.52
2022-11-17T04:02:26.066Z,99.50
2022-11-17T04:05:05.773Z,99.80
2022-11-17T04:07:47.620Z,100.00
2022-11-17T04:10:19.327Z,100.00
2022-11-17T04:13:07.601Z,100.00
2022-11-17T04:15:54.939Z,100.00
2022-11-17T04:18:23.814Z,100.00
2022-11-17T04:20:54.481Z,100.00
2022-11-17T04:23:23.179Z,100.00
2022-11-17T04:26:12.893Z,100.00
2022-11-17T04:28:47.370Z,100.00
2022-11-17T04:31:15.656Z,100.00
2022-11-17T04:33:53.426Z,100.00
2022-11-17T04:36:25.855Z,100.00
2022-11-17T04:38:56.138Z,100.00
2022-11-17T04:41:44.842Z,99.67
2022-11-17T04:44:17.156Z,99.48
2022-11-17T04:46:48.457Z,99.65
2022-11-17T04:49:17.958Z,99.27
2022-11-17T04:51:45.759Z,99.07
2022-11-17T04:54:17.600Z,98.63
2022-11-17T04:56:45.489Z,98.86
2022-11-17T04:59:14.147Z,98.40
2022-11-17T05:01:41.573Z,98.46
2022-11-17T05:04:14.807Z,98.23
2022-11-17T05:06:44.978Z,98.61
2022-11-17T05:09:16.796Z,98.27
2022-11-17T05:12:03.090Z,98.16
2022-11-17T05:14:30.408Z,98.31
2022-11-17T05:17:11.510Z,98.24
2022-11-17T05:19:45.566Z,98.41
2022-11-17T05:22:40.823Z,98.29
2022-11-17T05:25:08.634Z,98.43
2022-11-17T05:27:36.452Z,98.83
2022-11-17T05:30:07.159Z,99.01
2022-11-17T05:32:34.197Z,99.43
2022-11-17T05:35:01.276Z,99.47
2022-11-17T05:37:28.343Z,99.85
2022-11-17T05:39:55.327Z,100.00
2022-11-17T05:42:22.344Z,100.00
2022-11-17T05:44:49.650Z,100.00
2022-11-17T05:47:16.701Z,100.00
2022-11-17T05:49:44.706Z,100.00
2022-11-17T05:52:11.720Z,100.00
2022-11-17T05:54:38.722Z,100.00
2022-11-17T05:57:20.411Z,100.00
2022-11-17T05:59:57.111Z,100.00
2022-11-17T06:02:49.489Z,100.00
2022-11-17T06:05:23.850Z,100.00
2022-11-17T06:07:51.997Z,100.00
2022-11-17T06:10:18.985Z,100.00
2022-11-17T06:12:46.302Z,100.00
2022-11-17T06:15:13.494Z,100.00
2022-11-17T06:18:00.066Z,100.00
2022-11-17T06:20:44.035Z,99.80
2022-11-17T06:23:12.134Z,99.91
2022-11-17T06:25:39.979Z,99.67
2022-11-17T06:28:13.687Z,99.54
2022-11-17T06:30:42.938Z,99.05
2022-11-17T06:33:14.681Z,98.63
2022-11-17T06:35:45.433Z,98.44
2022-11-17T06:38:12.457Z,98.48
2022-11-17T06:40:39.506Z,98.62
2022-11-17T06:47:56.345Z,99.24
2022-11-17T06:50:23.403Z,99.20
2022-11-17T06:52:50.615Z,99.42
2022-11-17T06:55:18.548Z,99.50
2022-11-17T06:57:51.844Z,99.54
2022-11-17T07:00:20.894Z,99.56
2022-11-17T07:02:47.938Z,99.68
2022-11-17T07:05:15.014Z,99.69
2022-11-17T07:07:42.022Z,99.50
2022-11-17T07:10:09.711Z,99.31
2022-11-17T07:12:36.758Z,99.43
2022-11-17T07:15:04.314Z,99.25
2022-11-17T07:17:32.162Z,99.21
2022-11-17T07:19:59.350Z,99.40
2022-11-17T07:22:27.370Z,99.56
2022-11-17T07:24:54.409Z,99.54
2022-11-17T07:27:21.434Z,99.65
2022-11-17T07:29:49.973Z,99.62
2022-11-17T07:32:17.743Z,99.60
2022-11-17T07:34:45.015Z,99.79
2022-11-17T07:37:12.032Z,99.63
2022-11-17T07:39:39.063Z,99.61
2022-11-17T07:42:06.527Z,99.68
2022-11-17T07:44:34.366Z,99.25
2022-11-17T07:47:01.918Z,98.92
2022-11-17T07:49:29.196Z,98.87
2022-11-17T07:51:57.333Z,98.17
2022-11-17T07:54:24.354Z,98.15
2022-11-17T07:56:51.372Z,98.01
2022-11-17T07:59:21.328Z,98.13
2022-11-17T08:01:48.696Z,97.49
2022-11-17T08:04:16.015Z,97.36
2022-11-17T08:06:43.020Z,97.03
2022-11-17T08:09:10.743Z,96.29
2022-11-17T08:11:37.882Z,96.22
2022-11-17T08:14:05.247Z,96.02
2022-11-17T08:16:32.399Z,95.92
2022-11-17T08:19:06.254Z,95.69
2022-11-17T08:21:36.083Z,95.99
2022-11-17T08:24:03.296Z,96.11
2022-11-17T08:26:30.458Z,95.94
2022-11-17T08:28:59.123Z,95.68
2022-11-17T08:31:26.225Z,95.60
2022-11-17T08:33:53.309Z,95.28
2022-11-17T08:36:20.350Z,95.16
2022-11-17T08:38:48.349Z,94.87
2022-11-17T08:41:15.461Z,94.52
2022-11-17T08:43:43.474Z,94.52
2022-11-17T08:46:14.217Z,94.10
2022-11-17T08:48:41.349Z,94.00
2022-11-17T08:51:09.472Z,94.48
2022-11-17T08:53:36.686Z,94.44
2022-11-17T08:56:09.317Z,94.60
2022-11-17T08:58:44.841Z,94.16
2022-11-17T09:01:18.604Z,94.42
2022-11-17T09:03:47.694Z,94.43
2022-11-17T09:06:16.706Z,94.17
2022-11-17T09:08:46.773Z,94.36
2022-11-17T09:11:14.544Z,93.93
2022-11-17T09:13:42.230Z,93.99
2022-11-17T09:16:11.671Z,93.47
2022-11-17T09:18:40.569Z,93.60
2022-11-17T09:21:13.923Z,93.59
2022-11-17T09:23:41.549Z,93.60
2022-11-17T09:26:13.147Z,93.55
2022-11-17T09:28:45.195Z,93.70
2022-11-17T09:31:16.720Z,93.41
2022-11-17T09:33:44.341Z,93.59
2022-11-17T09:36:14.754Z,93.87
2022-11-17T09:38:42.770Z,94.24
2022-11-17T09:41:28.447Z,94.01
2022-11-17T09:44:15.407Z,94.11
2022-11-17T09:46:58.556Z,94.24
2022-11-17T09:49:53.675Z,93.66
2022-11-17T09:52:49.516Z,93.66
2022-11-17T09:55:31.151Z,93.95
2022-11-17T09:58:28.713Z,93.71
2022-11-17T10:00:56.303Z,94.05
2022-11-17T10:03:38.885Z,93.84
2022-11-17T10:06:27.486Z,93.30
2022-11-17T10:09:45.331Z,92.61
2022-11-17T10:12:20.518Z,92.26
2022-11-17T10:14:51.720Z,91.87
2022-11-17T10:17:18.911Z,91.80
2022-11-17T10:19:46.074Z,91.60
2022-11-17T10:22:36.814Z,90.96
2022-11-17T10:25:04.369Z,90.21
2022-11-17T10:27:34.659Z,89.26
2022-11-17T10:30:20.008Z,88.64
2022-11-17T10:32:58.358Z,87.37
2022-11-17T10:35:33.983Z,87.06
2022-11-17T10:38:13.182Z,86.06
2022-11-17T10:40:40.116Z,84.33
2022-11-17T10:43:12.949Z,84.50
2022-11-17T10:45:49.182Z,84.28
2022-11-17T10:48:37.867Z,84.39
2022-11-17T10:51:10.455Z,83.72
2022-11-17T10:53:46.724Z,83.08
2022-11-17T10:56:21.777Z,83.08
2022-11-17T10:59:00.906Z,82.96
2022-11-17T11:01:30.340Z,81.79
2022-11-17T11:03:57.786Z,81.80
2022-11-17T11:06:29.863Z,82.12
2022-11-17T11:09:00.936Z,81.93
2022-11-17T11:11:39.745Z,80.66
2022-11-17T11:14:39.194Z,80.37
2022-11-17T11:17:13.095Z,79.88
2022-11-17T11:19:43.065Z,80.40
2022-11-17T11:22:37.926Z,80.40
2022-11-17T11:25:37.605Z,79.60
2022-11-17T11:28:47.002Z,80.10
2022-11-17T11:31:32.519Z,81.02
2022-11-17T11:34:39.601Z,80.20
2022-11-17T11:37:16.217Z,81.02
2022-11-17T11:40:30.182Z,80.97
2022-11-17T11:43:04.139Z,80.67
2022-11-17T11:46:03.864Z,80.50
2022-11-17T11:48:39.967Z,80.33
2022-11-17T11:51:27.235Z,79.28
2022-11-17T11:54:03.883Z,79.98
2022-11-17T11:56:37.951Z,79.20
2022-11-17T11:59:37.918Z,80.20
2022-11-17T12:02:10.957Z,79.20
2022-11-17T12:05:22.907Z,78.50
2022-11-17T12:08:42.129Z,79.09
2022-11-17T12:11:34.564Z,79.63
2022-11-17T12:14:06.046Z,80.27
2022-11-17T12:16:36.829Z,79.18
2022-11-17T12:19:59.700Z,77.46
2022-11-17T12:22:29.671Z,77.83
2022-11-17T12:25:03.494Z,77.82
2022-11-17T12:27:34.206Z,78.91
2022-11-17T12:30:34.412Z,78.65
2022-11-17T12:33:04.823Z,78.74
2022-11-17T12:35:37.066Z,78.10
2022-11-17T12:38:19.985Z,78.21
2022-11-17T12:40:52.621Z,78.74
2022-11-17T12:43:24.615Z,78.14
2022-11-17T12:46:03.543Z,77.81
2022-11-17T12:48:39.183Z,77.64
2022-11-17T12:51:39.432Z,77.74
2022-11-17T12:54:31.339Z,77.77
2022-11-17T12:57:13.230Z,78.42
2022-11-17T13:00:20.114Z,78.14
2022-11-17T13:03:26.047Z,78.64
2022-11-17T13:06:33.953Z,78.56
2022-11-17T13:09:01.091Z,79.00
2022-11-17T13:11:30.131Z,78.73
2022-11-17T13:14:26.524Z,79.09
2022-11-17T13:16:53.655Z,79.67
2022-11-17T13:19:38.987Z,79.88
2022-11-17T13:22:17.092Z,80.23
2022-11-17T13:24:50.548Z,79.74
2022-11-17T13:27:25.834Z,80.23
2022-11-17T13:30:12.986Z,80.02
2022-11-17T13:32:42.523Z,79.79
2022-11-17T13:35:29.387Z,79.75
2022-11-17T13:38:11.626Z,79.74
2022-11-17T13:40:42.402Z,79.27
2022-11-17T13:43:22.870Z,79.14
2022-11-17T13:45:52.183Z,79.19
2022-11-17T13:48:43.845Z,77.96
2022-11-17T13:51:39.093Z,77.26
2022-11-17T13:54:13.006Z,76.82
2022-11-17T13:56:51.699Z,76.83
2022-11-17T13:59:33.940Z,76.90
2022-11-17T14:02:16.267Z,76.87
2022-11-17T14:05:16.973Z,76.84
2022-11-17T14:07:45.925Z,76.98
2022-11-17T14:10:22.000Z,76.62
2022-11-17T14:12:53.373Z,76.62
2022-11-17T14:15:25.860Z,76.49
2022-11-17T14:17:59.700Z,76.67
2022-11-17T14:20:32.379Z,76.17
2022-11-17T14:23:17.954Z,76.50
2022-11-17T14:25:51.340Z,76.37
2022-11-17T14:28:22.798Z,76.77
2022-11-17T14:30:57.629Z,75.92
2022-11-17T14:33:24.833Z,76.11
2022-11-17T14:35:59.184Z,76.21
2022-11-17T14:38:26.193Z,76.50
2022-11-17T14:40:53.907Z,77.12
2022-11-17T14:43:22.682Z,76.60
2022-11-17T14:45:50.627Z,77.02
2022-11-17T14:48:19.622Z,76.95
2022-11-17T14:50:48.176Z,77.28
2022-11-17T14:53:15.310Z,77.33
2022-11-17T14:55:42.481Z,77.54
2022-11-17T14:58:10.154Z,77.48
2022-11-17T15:00:37.633Z,77.06
2022-11-17T15:03:04.980Z,77.00
2022-11-17T15:05:34.382Z,77.31
2022-11-17T15:08:01.506Z,77.45
2022-11-17T15:10:28.563Z,77.07
2022-11-17T15:12:55.798Z,77.42
2022-11-17T15:15:22.844Z,77.49
2022-11-17T15:17:49.856Z,77.46
2022-11-17T15:20:17.544Z,77.20
2022-11-17T15:22:44.556Z,77.45
2022-11-17T15:25:12.171Z,77.16
2022-11-17T15:27:39.277Z,77.33
2022-11-17T15:30:07.445Z,77.34
2022-11-17T15:32:34.489Z,77.50
2022-11-17T15:35:01.611Z,77.41
2022-11-17T15:37:28.686Z,77.70
2022-11-17T15:39:55.713Z,77.68
2022-11-17T15:42:22.794Z,77.59
2022-11-17T15:44:49.856Z,77.85
2022-11-17T15:47:17.925Z,78.01
2022-11-17T15:49:46.781Z,77.69
2022-11-17T15:52:13.782Z,78.13
2022-11-17T15:54:40.776Z,78.24
2022-11-17T15:57:08.218Z,78.13
2022-11-17T15:59:35.330Z,78.36
2022-11-17T16:02:09.265Z,78.47
2022-11-17T16:04:36.423Z,78.53
2022-11-17T16:07:04.240Z,78.47
2022-11-17T16:09:31.518Z,78.64
2022-11-17T16:11:58.755Z,78.90
2022-11-17T16:14:25.918Z,78.94
2022-11-17T16:16:52.966Z,78.99
2022-11-17T16:19:20.184Z,79.06
2022-11-17T16:21:53.139Z,79.27
2022-11-17T16:24:20.182Z,79.34
2022-11-17T16:26:51.267Z,79.35
2022-11-17T16:29:18.617Z,79.44
2022-11-17T16:31:46.326Z,79.59
2022-11-17T16:34:15.674Z,79.52
2022-11-17T16:36:44.305Z,79.47
2022-11-17T16:39:16.658Z,79.91
2022-11-17T16:41:45.739Z,80.03
2022-11-17T16:44:17.943Z,79.51
2022-11-17T16:46:48.126Z,79.51
2022-11-17T16:49:18.440Z,79.57
2022-11-17T16:51:51.731Z,79.64
2022-11-17T16:54:20.330Z,79.49
2022-11-17T16:56:47.498Z,79.53
2022-11-17T16:59:15.219Z,79.27
2022-11-17T17:01:42.455Z,79.17
2022-11-17T17:04:12.264Z,79.11
2022-11-17T17:06:42.871Z,79.33
2022-11-17T17:09:37.238Z,79.43
2022-11-17T17:12:05.151Z,79.39
2022-11-17T17:14:32.136Z,79.74
2022-11-17T17:17:05.148Z,79.83
2022-11-17T17:19:33.286Z,80.17
2022-11-17T17:22:00.414Z,80.09
2022-11-17T17:24:27.621Z,80.00
2022-11-17T17:26:54.755Z,79.94
2022-11-17T17:29:21.726Z,80.20
2022-11-17T17:31:48.683Z,80.38
2022-11-17T17:34:17.019Z,80.59
2022-11-17T17:36:44.311Z,80.58
2022-11-17T17:39:17.201Z,80.65
2022-11-17T17:41:45.780Z,80.97
2022-11-17T17:44:18.925Z,80.68
2022-11-17T17:46:47.433Z,81.17
2022-11-17T17:49:15.032Z,81.31
2022-11-17T17:51:44.382Z,81.61
2022-11-17T17:54:20.825Z,81.74
2022-11-17T17:56:48.203Z,81.68
2022-11-17T17:59:15.907Z,81.77
2022-11-17T18:01:47.362Z,81.80
2022-11-17T18:04:16.583Z,82.17
2022-11-17T18:06:48.075Z,82.33
2022-11-17T18:09:19.485Z,82.46
2022-11-17T18:11:50.336Z,82.38
2022-11-17T18:14:23.846Z,82.56
2022-11-17T18:16:51.663Z,82.83
2022-11-17T18:19:19.564Z,82.79
2022-11-17T18:21:48.206Z,82.87
2022-11-17T18:24:15.332Z,82.94
2022-11-17T18:26:42.628Z,83.24
2022-11-17T18:29:16.458Z,83.11
2022-11-17T18:31:46.791Z,83.46
2022-11-17T18:34:20.996Z,83.70
2022-11-17T18:36:51.553Z,83.73
2022-11-17T18:39:19.621Z,83.76
2022-11-17T18:41:47.265Z,83.72
2022-11-17T18:44:19.470Z,83.93
2022-11-17T18:46:48.050Z,84.02
2022-11-17T18:49:15.832Z,84.10
2022-11-17T18:51:43.102Z,84.19
2022-11-17T18:54:12.471Z,84.31
2022-11-17T18:56:40.029Z,84.41
2022-11-17T18:59:11.426Z,84.60
2022-11-17T19:01:42.263Z,84.70
2022-11-17T19:04:12.642Z,84.79
2022-11-17T19:06:39.879Z,84.84
2022-11-17T19:09:09.573Z,84.99
2022-11-17T19:12:51.643Z,85.15
2022-11-17T19:15:20.003Z,85.26
2022-11-17T19:17:47.066Z,85.39
2022-11-17T19:20:14.988Z,85.33
2022-11-17T19:22:42.111Z,85.43
2022-11-17T19:25:11.202Z,85.38
2022-11-17T19:27:38.347Z,85.62
2022-11-17T19:30:06.071Z,85.61
2022-11-17T19:32:34.535Z,85.87
2022-11-17T19:35:12.939Z,85.89
2022-11-17T19:37:42.925Z,86.12
2022-11-17T19:40:10.504Z,86.21
2022-11-17T19:42:37.505Z,86.26
2022-11-17T19:45:04.851Z,86.25
2022-11-17T19:47:31.791Z,86.32
2022-11-17T19:49:58.715Z,86.51
2022-11-17T19:52:27.055Z,86.47
2022-11-17T19:54:54.143Z,86.62
2022-11-17T19:57:22.051Z,86.71
2022-11-17T19:59:50.114Z,86.88
2022-11-17T20:02:17.176Z,87.04
2022-11-17T20:04:46.095Z,87.06
2022-11-17T20:07:13.508Z,87.14
2022-11-17T20:09:40.550Z,87.26
2022-11-17T20:12:07.692Z,87.59
2022-11-17T20:14:34.691Z,87.63
2022-11-17T20:17:01.635Z,87.84
2022-11-17T20:19:28.954Z,87.93
2022-11-17T20:21:55.960Z,88.06
2022-11-17T20:24:23.001Z,87.93
2022-11-17T20:26:50.555Z,87.95
2022-11-17T20:29:17.752Z,88.01
2022-11-17T20:31:44.960Z,88.22
2022-11-17T20:34:12.947Z,88.38
2022-11-17T20:36:39.901Z,88.28
2022-11-17T20:39:07.786Z,88.20
2022-11-17T20:41:35.421Z,88.34
2022-11-17T20:44:03.360Z,88.47
2022-11-17T20:46:30.813Z,88.69
2022-11-17T20:48:57.863Z,88.87
2022-11-17T20:51:25.284Z,89.06
2022-11-17T20:53:53.430Z,88.96
2022-11-17T20:56:21.213Z,88.89
2022-11-17T20:58:48.477Z,89.20
2022-11-17T21:01:21.558Z,89.08
2022-11-17T21:03:49.223Z,89.21
2022-11-17T21:06:20.034Z,89.32
2022-11-17T21:08:48.218Z,89.45
2022-11-17T21:11:37.795Z,89.35
2022-11-17T21:14:07.759Z,89.25
2022-11-17T21:16:38.463Z,89.58
2022-11-17T21:19:05.953Z,89.83
2022-11-17T21:21:33.249Z,89.75
2022-11-17T21:24:00.419Z,89.77
2022-11-17T21:26:27.985Z,89.97
2022-11-17T21:29:00.489Z,90.28
2022-11-17T21:31:32.367Z,90.32
2022-11-17T21:34:06.664Z,90.35
2022-11-17T21:36:35.685Z,90.51
2022-11-17T21:39:04.246Z,90.55
2022-11-17T21:41:35.413Z,90.65
2022-11-17T21:44:03.281Z,90.95
2022-11-17T21:46:33.484Z,90.84
2022-11-17T21:49:01.383Z,90.77
2022-11-17T21:51:34.879Z,90.86
2022-11-17T21:54:05.810Z,90.95
2022-11-17T21:56:33.174Z,91.17
2022-11-17T21:59:06.942Z,91.45
2022-11-17T22:01:35.628Z,91.52
2022-11-17T22:04:02.987Z,91.64
2022-11-17T22:06:30.348Z,91.51
2022-11-17T22:08:59.691Z,91.59
2022-11-17T22:11:37.037Z,91.71
2022-11-17T22:14:16.994Z,91.40
2022-11-17T22:16:56.344Z,91.38
2022-11-17T22:19:28.313Z,91.86
2022-11-17T22:21:55.327Z,92.13
2022-11-17T22:24:23.520Z,92.13
2022-11-17T22:26:51.805Z,92.10
2022-11-17T22:29:24.770Z,92.30
2022-11-17T22:31:51.818Z,92.40
2022-11-17T22:34:19.057Z,92.18
2022-11-17T22:36:46.977Z,92.46
2022-11-17T22:39:14.199Z,92.53
2022-11-17T22:41:41.255Z,92.52
2022-11-17T22:44:14.137Z,92.90
2022-11-17T22:46:43.067Z,92.76
2022-11-17T22:49:13.467Z,92.71
2022-11-17T22:51:59.422Z,92.96
2022-11-17T22:54:28.815Z,92.76
2022-11-17T22:56:56.923Z,92.99
2022-11-17T22:59:25.560Z,92.74
2022-11-17T23:01:52.568Z,92.81
2022-11-17T23:04:20.836Z,93.00
2022-11-17T23:46:16.417Z,93.38
2022-11-17T23:48:45.350Z,93.35
2022-11-17T23:51:17.287Z,92.90
2022-11-17T23:53:44.345Z,93.11
2022-11-17T23:56:11.953Z,92.91
2022-11-17T23:58:40.036Z,92.55
